Time;durP1;ratioP1;P1;durP2;ratioP2;P2;SDS_P1;SDS_P2;PMS_P1;PMS_P2;Temp;Humidity;BMP_temperature;BMP_pressure;BME280_temperature;BME280_humidity;BME280_pressure;Samples;Min_cycle;Max_cycle;Signal;HPM_P1;HPM_P2
2021/04/16 00:01:56;;;;;;;7.55;5.28;;;;;;;1.72;89.62;100554.02;1689793;84;21173;-83
2021/04/16 00:04:22;;;;;;;5.33;4.78;;;;;;;1.72;89.72;100552.71;1691373;84;21195;-83
2021/04/16 00:06:48;;;;;;;6.95;5.97;;;;;;;1.72;89.72;100552.71;1691273;84;21182;-84
2021/04/16 00:09:15;;;;;;;4.75;3.98;;;;;;;1.75;89.78;100559.12;1674314;84;21142;-83
2021/04/16 00:11:41;;;;;;;5.25;4.00;;;;;;;1.75;89.81;100551.31;1671842;85;21074;-83
2021/04/16 00:14:08;;;;;;;5.62;4.58;;;;;;;1.76;89.75;100546.50;1681955;85;21153;-83
2021/04/16 00:16:34;;;;;;;4.95;4.45;;;;;;;1.78;89.73;100550.38;1690923;84;21077;-83
2021/04/16 00:19:00;;;;;;;5.15;4.20;;;;;;;1.78;89.77;100552.52;1691133;84;21259;-83
2021/04/16 00:21:28;;;;;;;5.15;4.70;;;;;;;1.80;89.78;100555.05;1691266;84;21170;-83
2021/04/16 00:23:54;;;;;;;4.67;4.00;;;;;;;1.82;89.73;100549.36;1691325;84;21287;-83
2021/04/16 00:26:20;;;;;;;4.53;4.10;;;;;;;1.81;89.77;100545.91;1677835;84;21172;-83
2021/04/16 00:28:49;;;;;;;5.67;4.00;;;;;;;1.82;89.78;100541.55;1671684;86;21306;-83
2021/04/16 00:31:21;;;;;;;4.45;4.03;;;;;;;1.84;89.82;100544.52;1671999;85;21134;-83
2021/04/16 00:33:47;;;;;;;4.22;3.67;;;;;;;1.84;89.72;100539.31;1670926;86;21690;-84
2021/04/16 00:36:14;;;;;;;5.28;4.72;;;;;;;1.83;89.77;100537.59;1671985;86;21304;-84
2021/04/16 00:38:40;;;;;;;6.05;4.05;;;;;;;1.83;89.77;100537.59;1674289;85;21176;-83
2021/04/16 00:41:11;;;;;;;4.22;3.83;;;;;;;1.84;89.79;100528.90;1674019;85;21268;-84
2021/04/16 00:43:37;;;;;;;5.45;3.90;;;;;;;1.86;89.85;100534.04;1685113;84;21078;-84
2021/04/16 00:46:15;;;;;;;5.17;3.70;;;;;;;1.84;89.71;100528.02;1672022;85;21271;-84
2021/04/16 00:48:57;;;;;;;4.80;4.22;;;;;;;1.84;89.77;100526.72;1672562;85;21141;-85
2021/04/16 00:51:40;;;;;;;4.93;4.43;;;;;;;1.80;89.72;100529.88;1671673;85;21133;-84
2021/04/16 00:54:14;;;;;;;5.30;4.30;;;;;;;1.77;89.84;100530.44;1683603;85;21184;-84
2021/04/16 00:56:41;;;;;;;4.28;3.70;;;;;;;1.75;89.87;100528.35;1624493;86;21110;-84
2021/04/16 00:59:07;;;;;;;4.55;4.15;;;;;;;1.74;89.97;100523.57;1661503;85;21141;-84
2021/04/16 01:01:33;;;;;;;6.90;4.58;;;;;;;1.74;90.00;100530.53;1672885;85;21623;-84
2021/04/16 01:04:00;;;;;;;5.60;5.10;;;;;;;1.74;90.10;100524.03;1672022;85;21160;-84
2021/04/16 01:06:26;;;;;;;5.95;4.80;;;;;;;1.74;90.03;100529.23;1671903;86;21292;-84
2021/04/16 01:08:53;;;;;;;5.50;4.80;;;;;;;1.74;90.05;100530.53;1671922;85;21553;-84
2021/04/16 01:11:20;;;;;;;6.22;5.15;;;;;;;1.72;90.15;100533.20;1672023;85;21141;-84
2021/04/16 01:13:47;;;;;;;6.05;5.40;;;;;;;1.71;90.19;100523.70;1678398;85;21129;-84
2021/04/16 01:16:18;;;;;;;5.20;4.65;;;;;;;1.73;90.26;100522.34;1691395;84;21097;-84
2021/04/16 01:18:47;;;;;;;6.20;5.20;;;;;;;1.76;90.25;100517.03;1690859;84;21275;-84
2021/04/16 01:21:18;;;;;;;6.03;5.37;;;;;;;1.76;90.13;100519.18;1691085;84;21561;-83
2021/04/16 01:24:22;;;;;;;5.80;4.97;;;;;;;1.75;90.11;100520.09;1691192;84;21202;-83
2021/04/16 01:26:49;;;;;;;6.72;5.83;;;;;;;1.75;90.09;100514.89;1691137;84;21176;-84
2021/04/16 01:29:16;;;;;;;6.67;6.00;;;;;;;1.75;90.12;100512.74;1691049;84;21593;-84
2021/04/16 01:31:49;;;;;;;7.87;6.50;;;;;;;1.77;90.20;100514.83;1691029;84;21326;-84
2021/04/16 01:34:26;;;;;;;5.45;4.95;;;;;;;1.78;90.14;100519.14;1691058;84;21632;-83
2021/04/16 01:36:56;;;;;;;6.25;5.00;;;;;;;1.79;90.25;100515.18;1679477;84;21177;-84
2021/04/16 01:39:25;;;;;;;8.60;5.87;;;;;;;1.77;90.08;100510.46;1673368;85;21118;-84
2021/04/16 01:41:52;;;;;;;5.28;4.37;;;;;;;1.76;90.13;100510.08;1673024;85;21275;-84
2021/04/16 01:44:23;;;;;;;5.78;5.17;;;;;;;1.74;90.25;100515.77;1682763;85;21113;-84
2021/04/16 01:46:58;;;;;;;5.78;4.60;;;;;;;1.72;90.29;100508.48;1684827;85;21155;-84
2021/04/16 01:49:32;;;;;;;6.20;5.60;;;;;;;1.72;90.29;100521.49;1672076;86;21312;-84
2021/04/16 01:51:59;;;;;;;5.58;5.08;;;;;;;1.73;90.39;100516.68;1671756;86;21163;-84
2021/04/16 01:54:32;;;;;;;4.40;3.92;;;;;;;1.76;90.38;100518.34;1673753;85;21501;-84
2021/04/16 01:57:06;;;;;;;5.25;4.62;;;;;;;1.75;90.19;100513.59;1671809;85;21516;-84
2021/04/16 01:59:36;;;;;;;5.85;4.58;;;;;;;1.75;90.33;100513.59;1671473;85;21184;-84
2021/04/16 02:02:06;;;;;;;7.08;5.03;;;;;;;1.74;90.30;100513.16;1671968;85;21724;-84
2021/04/16 02:04:32;;;;;;;5.15;4.65;;;;;;;1.75;90.37;100509.69;1671954;86;21114;-84
2021/04/16 02:06:58;;;;;;;6.00;5.20;;;;;;;1.74;90.40;100510.56;1671734;86;21282;-84
2021/04/16 02:09:30;;;;;;;6.92;5.37;;;;;;;1.74;90.39;100508.42;1672130;85;21148;-84
2021/04/16 02:14:23;;;;;;;6.60;4.87;;;;;;;1.75;90.46;100502.33;1862602;76;22924;-82
2021/04/16 02:16:54;;;;;;;6.22;5.62;;;;;;;1.72;90.47;100514.14;1787128;79;21581;-84
2021/04/16 02:19:21;;;;;;;6.10;5.17;;;;;;;1.71;90.50;100505.91;1787206;80;21175;-84
2021/04/16 02:21:48;;;;;;;6.22;5.22;;;;;;;1.71;90.44;100505.49;1801307;79;21121;-84
2021/04/16 02:24:15;;;;;;;6.00;4.95;;;;;;;1.72;90.55;100509.78;1802548;78;21085;-84
2021/04/16 02:26:41;;;;;;;10.93;6.50;;;;;;;1.73;90.48;100510.17;1791650;79;21107;-84
2021/04/16 02:29:12;;;;;;;10.58;9.58;;;;;;;1.73;90.53;100517.13;1771158;81;21129;-84
2021/04/16 02:31:42;;;;;;;8.78;6.28;;;;;;;1.72;90.53;100513.69;1771274;79;21479;-84
2021/04/16 02:34:12;;;;;;;686.17;488.20;;;;;;;1.75;90.55;100517.95;1771508;79;21137;-84
2021/04/16 02:36:38;;;;;;;83.82;62.58;;;;;;;1.75;90.49;100510.98;1771417;79;21151;-85
2021/04/16 02:39:07;;;;;;;7.12;6.42;;;;;;;1.76;90.51;100513.12;1771373;79;21523;-84
2021/04/16 02:41:33;;;;;;;5.03;4.50;;;;;;;1.75;90.47;100505.78;1771199;81;21088;-84
2021/04/16 02:44:00;;;;;;;5.75;4.60;;;;;;;1.75;90.43;100504.94;1783634;79;21121;-84
2021/04/16 02:46:26;;;;;;;5.97;4.62;;;;;;;1.75;90.56;100501.87;1802544;79;21097;-84
2021/04/16 02:48:52;;;;;;;5.55;4.92;;;;;;;1.76;90.57;100511.37;1802644;79;21612;-84
2021/04/16 02:51:19;;;;;;;6.05;4.70;;;;;;;1.79;90.68;100506.53;1802708;79;21118;-84
2021/04/16 02:53:44;;;;;;;8.08;4.65;;;;;;;1.77;90.58;100507.86;1802633;78;21130;-84
2021/04/16 02:56:11;;;;;;;4.60;4.17;;;;;;;1.79;90.64;100509.97;1788798;78;21534;-84
2021/04/16 02:58:37;;;;;;;5.20;4.70;;;;;;;1.77;90.72;100508.31;1771221;79;21098;-84
2021/04/16 03:01:03;;;;;;;6.00;5.40;;;;;;;1.77;90.71;100507.86;1781762;79;21169;-83
2021/04/16 03:03:29;;;;;;;6.08;5.12;;;;;;;1.80;90.74;100501.26;1802674;78;21583;-84
2021/04/16 03:05:55;;;;;;;12.75;9.23;;;;;;;1.82;90.70;100499.92;1802704;79;21621;-84
2021/04/16 03:08:21;;;;;;;7.28;5.80;;;;;;;1.82;90.71;100499.47;1796753;79;21195;-84
2021/04/16 03:10:50;;;;;;;7.55;6.12;;;;;;;1.83;90.77;100495.95;1802539;78;21100;-84
2021/04/16 03:13:18;;;;;;;8.73;5.28;;;;;;;1.85;90.79;100497.22;1797933;78;21177;-84
2021/04/16 03:15:45;;;;;;;6.60;5.22;;;;;;;1.84;90.72;100492.47;1771413;79;21076;-84
2021/04/16 03:18:11;;;;;;;6.62;5.50;;;;;;;1.84;90.74;100490.30;1779897;79;21152;-84
2021/04/16 03:20:37;;;;;;;4.58;4.10;;;;;;;1.84;90.82;100498.98;1793735;79;22333;-84
2021/04/16 03:23:03;;;;;;;8.45;5.20;;;;;;;1.82;90.79;100492.96;1802302;79;21108;-84
2021/04/16 03:25:29;;;;;;;9.00;6.80;;;;;;;1.83;90.81;100498.55;1801677;78;21136;-84
2021/04/16 03:27:55;;;;;;;6.42;5.40;;;;;;;1.84;90.93;100497.67;1784026;78;21629;-84
2021/04/16 03:30:24;;;;;;;9.35;5.72;;;;;;;1.84;90.88;100497.67;1801635;79;21102;-84
2021/04/16 03:32:51;;;;;;;5.90;4.80;;;;;;;1.86;90.94;100495.84;1802375;78;21562;-84
2021/04/16 03:35:18;;;;;;;6.12;4.80;;;;;;;1.91;91.04;100494.84;1788402;79;21118;-83
2021/04/16 03:37:45;;;;;;;5.22;4.65;;;;;;;1.91;90.92;100496.14;1792734;80;21171;-84
2021/04/16 03:40:15;;;;;;;7.25;5.30;;;;;;;1.92;90.99;100491.35;1797668;79;21080;-84
2021/04/16 03:42:41;;;;;;;7.42;6.12;;;;;;;1.90;90.97;100493.14;1799846;78;21536;-84
2021/04/16 03:45:09;;;;;;;5.80;5.20;;;;;;;1.92;91.03;100497.86;1776147;79;21105;-84
2021/04/16 03:47:35;;;;;;;7.08;5.70;;;;;;;1.93;91.09;100495.64;1770449;81;21150;-84
2021/04/16 03:50:01;;;;;;;6.80;5.60;;;;;;;1.93;91.17;100498.25;1785440;79;21137;-84
2021/04/16 03:52:28;;;;;;;6.22;5.30;;;;;;;1.91;91.10;100492.23;1801978;78;21072;-84
2021/04/16 03:54:55;;;;;;;6.28;5.37;;;;;;;1.88;91.22;100490.16;1776996;79;21136;-84
2021/04/16 03:57:22;;;;;;;6.15;4.92;;;;;;;1.87;91.46;100493.63;1770495;80;21670;-84
2021/04/16 03:59:49;;;;;;;6.03;5.40;;;;;;;1.85;91.33;100497.22;1784059;79;21044;-84
2021/04/16 04:02:15;;;;;;;6.33;5.72;;;;;;;1.85;91.48;100499.81;1801541;79;21151;-84
2021/04/16 04:04:41;;;;;;;7.03;5.78;;;;;;;1.88;91.49;100502.32;1801910;79;21689;-84
2021/04/16 04:07:07;;;;;;;6.92;5.50;;;;;;;1.90;91.53;100497.05;1801986;79;21132;-84
2021/04/16 04:09:35;;;;;;;7.80;5.95;;;;;;;1.93;91.57;100504.75;1801935;79;21503;-84
2021/04/16 04:12:01;;;;;;;8.30;5.92;;;;;;;1.93;91.69;100504.75;1801988;79;21156;-84
2021/04/16 04:14:27;;;;;;;11.43;8.13;;;;;;;1.93;91.55;100504.30;1799778;79;21083;-84
2021/04/16 04:16:57;;;;;;;16.45;10.08;;;;;;;1.95;91.63;100508.17;1807541;79;21261;-84
2021/04/16 04:19:26;;;;;;;18.57;13.32;;;;;;;1.98;91.64;100505.46;1821828;79;21140;-84
2021/04/16 04:21:55;;;;;;;11.73;7.45;;;;;;;1.99;91.63;100505.84;1821859;79;21107;-84
2021/04/16 04:24:22;;;;;;;10.70;8.48;;;;;;;2.01;91.61;100504.91;1821943;79;21087;-84
2021/04/16 04:26:50;;;;;;;9.33;7.55;;;;;;;2.02;91.66;100500.54;1801986;79;21593;-84
2021/04/16 04:29:20;;;;;;;10.85;8.50;;;;;;;2.02;91.62;100496.64;1805727;79;21145;-84
2021/04/16 04:31:47;;;;;;;8.60;7.22;;;;;;;2.01;91.66;100498.39;1821280;79;21609;-84
2021/04/16 04:34:24;;;;;;;8.38;6.80;;;;;;;2.04;91.85;100500.02;1817905;79;21105;-84
2021/04/16 04:36:54;;;;;;;8.40;7.60;;;;;;;2.02;91.76;100506.59;1816004;79;21115;-84
2021/04/16 04:39:23;;;;;;;8.93;7.22;;;;;;;2.02;91.70;100507.89;1821139;79;21119;-85
2021/04/16 04:41:49;;;;;;;7.83;7.03;;;;;;;2.05;91.84;100513.45;1816969;79;21115;-84
2021/04/16 04:44:15;;;;;;;8.55;6.85;;;;;;;2.05;91.83;100512.16;1803325;79;21084;-84
2021/04/16 04:46:42;;;;;;;10.38;6.90;;;;;;;2.06;91.80;100508.64;1821920;79;21107;-84
2021/04/16 04:49:09;;;;;;;6.95;6.25;;;;;;;2.06;91.85;100503.42;1816373;77;21091;-84
2021/04/16 04:51:38;;;;;;;8.00;6.70;;;;;;;2.06;91.80;100502.97;1817837;77;21084;-84
2021/04/16 04:54:06;;;;;;;9.95;7.67;;;;;;;2.05;91.79;100505.64;1792231;78;21059;-84
2021/04/16 04:56:32;;;;;;;7.87;6.75;;;;;;;2.05;91.86;100506.95;1798042;77;21531;-84
2021/04/16 04:58:58;;;;;;;7.85;6.60;;;;;;;2.06;91.94;100513.84;1791635;79;21137;-83
2021/04/16 05:01:24;;;;;;;7.70;6.12;;;;;;;2.07;91.90;100511.20;1817570;77;21535;-84
2021/04/16 05:03:50;;;;;;;7.65;6.28;;;;;;;2.09;91.96;100510.67;1819623;77;21297;-84
2021/04/16 05:06:16;;;;;;;11.18;7.30;;;;;;;2.11;92.13;100515.39;1818652;77;21120;-84
2021/04/16 05:08:45;;;;;;;8.23;7.08;;;;;;;2.11;92.12;100513.24;1821740;77;21136;-83
2021/04/16 05:11:11;;;;;;;8.58;7.00;;;;;;;2.12;92.15;100507.13;1823422;77;21134;-84
2021/04/16 05:13:38;;;;;;;7.60;6.53;;;;;;;2.14;92.17;100505.33;1811581;77;21289;-84
2021/04/16 05:16:05;;;;;;;7.47;6.47;;;;;;;2.18;92.34;100516.03;1804524;78;21138;-84
2021/04/16 05:18:31;;;;;;;8.03;6.10;;;;;;;2.19;92.22;100515.11;1785525;78;21108;-84
2021/04/16 05:20:57;;;;;;;6.20;5.10;;;;;;;2.21;92.31;100513.32;1795298;78;21834;-84
2021/04/16 05:23:23;;;;;;;7.37;5.55;;;;;;;2.24;92.46;100509.31;1790451;78;21186;-84
2021/04/16 05:25:49;;;;;;;6.95;5.92;;;;;;;2.26;92.28;100510.54;1787745;78;21825;-84
2021/04/16 05:28:15;;;;;;;6.20;5.60;;;;;;;2.27;92.32;100511.80;1801744;78;21147;-84
2021/04/16 05:30:41;;;;;;;7.85;5.30;;;;;;;2.31;92.51;100506.88;1802701;78;21291;-84
2021/04/16 05:33:07;;;;;;;12.28;9.45;;;;;;;2.31;92.37;100508.64;1805196;78;21087;-84
2021/04/16 05:35:33;;;;;;;12.47;10.43;;;;;;;2.32;92.46;100511.17;1806792;78;21127;-84
2021/04/16 05:37:59;;;;;;;9.18;8.08;;;;;;;2.30;92.44;100505.61;1804517;78;21091;-84
2021/04/16 05:40:26;;;;;;;7.28;6.55;;;;;;;2.34;92.44;100509.38;1807055;78;21253;-84
2021/04/16 05:42:53;;;;;;;6.58;5.90;;;;;;;2.37;92.48;100511.03;1806047;78;21110;-84
2021/04/16 05:45:20;;;;;;;8.83;6.08;;;;;;;2.39;92.49;100516.16;1808034;78;21116;-84
2021/04/16 05:47:46;;;;;;;7.15;5.70;;;;;;;2.40;92.54;100517.86;1800531;78;21178;-84
2021/04/16 05:50:15;;;;;;;7.80;5.90;;;;;;;2.40;92.53;100516.55;1809158;78;21103;-84
2021/04/16 05:52:41;;;;;;;6.90;6.20;;;;;;;2.40;92.60;100520.46;1811634;78;21128;-84
2021/04/16 05:55:08;;;;;;;7.45;5.85;;;;;;;2.40;92.75;100529.58;1772794;78;21157;-84
2021/04/16 05:57:34;;;;;;;9.83;8.20;;;;;;;2.40;92.73;100525.67;1797626;78;21088;-84
2021/04/16 06:00:00;;;;;;;12.28;10.50;;;;;;;2.40;92.80;100520.00;1808528;78;21667;-84
2021/04/16 06:02:34;;;;;;;11.38;9.55;;;;;;;2.42;92.91;100516.06;1789944;78;21152;-84
2021/04/16 06:05:11;;;;;;;13.78;11.05;;;;;;;2.44;92.91;100522.08;1800514;78;21128;-84
2021/04/16 06:07:37;;;;;;;14.50;12.28;;;;;;;2.45;92.95;100519.86;1802301;78;21128;-84
2021/04/16 06:10:07;;;;;;;15.95;12.98;;;;;;;2.46;92.94;100519.78;1793529;78;21120;-84
2021/04/16 06:12:34;;;;;;;23.18;15.00;;;;;;;2.50;93.04;100518.80;1787734;78;21575;-84
2021/04/16 06:15:01;;;;;;;32.63;19.55;;;;;;;2.53;92.97;100518.69;1802593;77;21143;-84
2021/04/16 06:17:27;;;;;;;17.70;12.85;;;;;;;2.54;93.00;100516.93;1815096;77;21653;-83
2021/04/16 06:19:53;;;;;;;23.95;15.45;;;;;;;2.57;93.03;100523.33;1813770;78;21114;-83
2021/04/16 06:22:20;;;;;;;13.43;10.18;;;;;;;2.58;92.98;100525.02;1813758;79;21411;-83
2021/04/16 06:24:49;;;;;;;12.23;10.88;;;;;;;2.59;93.01;100522.80;1774792;80;21245;-83
2021/04/16 06:27:16;;;;;;;17.12;13.53;;;;;;;2.62;93.05;100521.84;1783466;80;21193;-83
2021/04/16 06:29:42;;;;;;;19.15;14.18;;;;;;;2.63;93.11;100519.63;1794120;79;21161;-83
2021/04/16 06:32:09;;;;;;;21.50;14.33;;;;;;;2.65;93.09;100524.34;1791411;78;21084;-83
2021/04/16 06:34:35;;;;;;;21.35;16.95;;;;;;;2.66;93.13;100528.18;1801350;79;21320;-83
2021/04/16 06:37:01;;;;;;;29.55;25.52;;;;;;;2.69;93.19;100525.46;1774525;79;21425;-83
2021/04/16 06:39:27;;;;;;;14.20;12.50;;;;;;;2.72;93.27;100527.11;1791074;79;21149;-83
2021/04/16 06:41:54;;;;;;;15.68;14.03;;;;;;;2.73;93.28;100527.08;1792847;79;21152;-83
2021/04/16 06:44:25;;;;;;;53.10;37.23;;;;;;;2.76;93.30;100519.14;1796293;79;21128;-83
2021/04/16 06:46:56;;;;;;;10.38;8.85;;;;;;;2.78;93.38;100519.92;1798240;78;21591;-83
2021/04/16 06:49:30;;;;;;;9.50;7.97;;;;;;;2.79;93.33;100519.00;1806808;78;21136;-83
2021/04/16 06:52:24;;;;;;;6.80;6.10;;;;;;;2.81;93.32;100520.27;1797727;78;21149;-83
2021/04/16 06:55:12;;;;;;;11.55;10.35;;;;;;;2.84;93.35;100520.61;1787985;78;21120;-83
2021/04/16 06:57:42;;;;;;;24.25;21.75;;;;;;;2.86;93.41;100533.95;1778145;79;21136;-82
2021/04/16 07:00:44;;;;;;;47.90;39.08;;;;;;;2.90;93.42;100515.17;1766930;81;21160;-82
2021/04/16 07:03:26;;;;;;;13.60;12.18;;;;;;;2.92;93.50;100518.55;1769399;79;21145;-82
2021/04/16 07:06:15;;;;;;;19.10;17.07;;;;;;;2.93;93.46;100522.84;1769358;81;21179;-82
2021/04/16 07:11:41;;;;;;;27.98;20.50;;;;;;;3.00;93.57;100524.34;1702617;83;21175;-83
2021/04/16 07:14:28;;;;;;;16.00;11.10;;;;;;;3.02;93.42;100520.73;1742505;81;21167;-83
2021/04/16 07:16:56;;;;;;;13.08;10.80;;;;;;;3.05;93.41;100528.91;1709269;83;21608;-83
2021/04/16 07:19:26;;;;;;;16.62;12.88;;;;;;;3.07;93.41;100524.95;1737158;80;21264;-82
2021/04/16 07:22:06;;;;;;;18.80;13.03;;;;;;;3.09;93.44;100521.81;1752560;81;21164;-82
2021/04/16 07:24:33;;;;;;;11.35;8.68;;;;;;;3.10;93.42;100522.23;1735943;80;21290;-82
2021/04/16 07:27:26;;;;;;;14.65;10.88;;;;;;;3.11;93.41;100525.22;1764970;80;21621;-82
2021/04/16 07:29:57;;;;;;;16.47;10.50;;;;;;;3.13;93.46;100516.89;1750452;81;21114;-82
2021/04/16 07:32:37;;;;;;;12.20;8.00;;;;;;;3.14;93.44;100520.73;1765576;79;21210;-82
2021/04/16 07:35:33;;;;;;;9.60;7.30;;;;;;;3.15;93.36;100518.52;1770579;79;21436;-82
2021/04/16 07:38:30;;;;;;;11.83;9.28;;;;;;;3.18;93.48;100518.86;1708467;80;21248;-82
2021/04/16 07:41:25;;;;;;;9.63;8.20;;;;;;;3.21;93.49;100526.56;1689842;83;21138;-84
2021/04/16 07:43:56;;;;;;;11.22;8.20;;;;;;;3.25;93.43;100531.58;1717919;82;21148;-83
2021/04/16 07:49:14;;;;;;;10.40;8.80;;;;;;;3.29;93.41;100531.01;1664743;83;21323;-83
2021/04/16 07:51:48;;;;;;;10.15;8.65;;;;;;;3.29;93.34;100531.01;1666843;86;21124;-83
2021/04/16 07:54:25;;;;;;;9.18;7.65;;;;;;;3.32;93.36;100536.56;1661525;85;21644;-82
2021/04/16 07:57:05;;;;;;;9.63;7.45;;;;;;;3.32;93.32;100536.56;1661672;86;21147;-83
2021/04/16 07:59:31;;;;;;;11.00;8.38;;;;;;;3.33;93.30;100540.89;1661228;86;21330;-83
2021/04/16 08:01:57;;;;;;;11.48;8.78;;;;;;;3.34;93.32;100544.73;1638440;86;21139;-83
2021/04/16 08:04:35;;;;;;;13.45;7.80;;;;;;;3.37;93.38;100539.39;1662517;84;21128;-83
2021/04/16 08:07:20;;;;;;;10.28;8.15;;;;;;;3.39;93.27;100543.23;1664834;84;21143;-83
2021/04/16 08:09:46;;;;;;;11.28;8.33;;;;;;;3.38;93.09;100541.55;1652646;85;21216;-83
2021/04/16 08:12:17;;;;;;;9.90;8.15;;;;;;;3.40;93.09;100547.56;1662122;86;21689;-83
2021/04/16 08:14:45;;;;;;;10.95;9.75;;;;;;;3.41;93.17;100534.91;1638952;86;22284;-83
2021/04/16 08:17:30;;;;;;;11.40;9.03;;;;;;;3.42;93.19;100537.47;1661529;84;21166;-83
2021/04/16 08:20:22;;;;;;;9.30;6.80;;;;;;;3.45;93.26;100533.41;1666678;84;21189;-83
2021/04/16 08:22:48;;;;;;;10.85;8.60;;;;;;;3.48;93.08;100542.88;1661316;84;21190;-83
2021/04/16 08:25:19;;;;;;;15.30;8.93;;;;;;;3.49;93.06;100542.83;1661131;86;21124;-84
2021/04/16 08:28:00;;;;;;;10.03;8.25;;;;;;;3.51;92.99;100544.06;1662013;84;21197;-83
2021/04/16 08:30:49;;;;;;;8.85;7.15;;;;;;;3.52;92.97;100546.63;1656940;86;21233;-82
2021/04/16 08:33:30;;;;;;;9.15;6.80;;;;;;;3.53;92.86;100547.47;1661029;85;21649;-83
2021/04/16 08:36:14;;;;;;;9.58;6.60;;;;;;;3.50;92.71;100547.12;1660787;84;21160;-83
2021/04/16 08:39:05;;;;;;;8.95;6.45;;;;;;;3.49;92.59;100547.20;1660831;84;21213;-83
2021/04/16 08:41:35;;;;;;;9.10;6.75;;;;;;;3.51;92.77;100550.58;1681127;84;21800;-83
2021/04/16 08:44:06;;;;;;;8.40;7.25;;;;;;;3.49;92.69;100555.87;1690068;85;21156;-83
2021/04/16 08:46:45;;;;;;;9.60;7.05;;;;;;;3.50;92.73;100556.27;1670722;83;21124;-82
2021/04/16 08:49:22;;;;;;;9.20;6.20;;;;;;;3.50;92.53;100550.20;1667571;83;21153;-83
2021/04/16 08:52:00;;;;;;;9.70;5.60;;;;;;;3.51;92.64;100557.11;1659156;83;21187;-83
2021/04/16 08:54:33;;;;;;;9.05;6.35;;;;;;;3.53;92.86;100553.99;1664464;83;21159;-83
2021/04/16 08:57:25;;;;;;;7.83;5.97;;;;;;;3.56;92.79;100558.25;1670241;83;21308;-83
2021/04/16 09:00:18;;;;;;;10.32;6.80;;;;;;;3.58;92.73;100559.86;1677920;83;21169;-83
2021/04/16 09:02:58;;;;;;;8.63;6.70;;;;;;;3.60;92.85;100554.59;1599543;87;21659;-83
2021/04/16 09:05:29;;;;;;;7.37;6.30;;;;;;;3.63;92.75;100554.48;1604841;87;21653;-83
2021/04/16 09:08:13;;;;;;;6.12;4.95;;;;;;;3.64;92.74;100554.86;1663229;82;21535;-83
2021/04/16 09:10:58;;;;;;;8.53;6.37;;;;;;;3.65;92.83;100563.95;1683498;83;21176;-83
2021/04/16 09:13:44;;;;;;;11.48;6.58;;;;;;;3.66;92.67;100565.64;1691528;83;22291;-83
2021/04/16 09:16:21;;;;;;;10.00;7.33;;;;;;;3.68;92.73;100565.10;1685025;83;21180;-83
2021/04/16 09:18:52;;;;;;;8.10;5.92;;;;;;;3.68;92.67;100561.19;1697208;82;21133;-84
2021/04/16 09:21:28;;;;;;;6.58;5.53;;;;;;;3.70;92.76;100559.37;1714758;82;21151;-84
2021/04/16 09:24:03;;;;;;;6.53;5.53;;;;;;;3.72;92.64;100562.78;1699976;82;21152;-84
2021/04/16 09:26:50;;;;;;;7.75;5.50;;;;;;;3.73;92.74;100564.48;1687557;83;21185;-84
2021/04/16 09:29:37;;;;;;;6.25;4.90;;;;;;;3.75;92.71;100569.19;1687556;83;21186;-83
2021/04/16 09:32:25;;;;;;;7.70;4.15;;;;;;;3.78;92.68;100566.04;1682743;83;21155;-83
2021/04/16 09:34:55;;;;;;;6.60;4.28;;;;;;;3.76;92.17;100576.09;1662360;84;21236;-83
2021/04/16 09:37:36;;;;;;;6.40;5.03;;;;;;;3.72;92.03;100569.31;1685276;85;21425;-84
2021/04/16 09:40:27;;;;;;;6.78;4.00;;;;;;;3.71;92.22;100578.48;1684083;85;21116;-85
2021/04/16 09:43:10;;;;;;;6.37;5.42;;;;;;;3.68;92.23;100572.93;1677604;84;21590;-82
2021/04/16 09:45:44;;;;;;;7.78;4.87;;;;;;;3.68;92.10;100570.32;1678842;83;21166;-83
2021/04/16 09:48:22;;;;;;;5.75;4.85;;;;;;;3.67;92.07;100576.92;1658883;84;21627;-83
2021/04/16 09:50:53;;;;;;;7.60;4.75;;;;;;;3.65;92.06;100574.39;1672261;83;21176;-83
2021/04/16 09:53:32;;;;;;;9.53;5.65;;;;;;;3.64;92.24;100576.58;1658463;85;21135;-83
2021/04/16 09:56:05;;;;;;;13.83;9.93;;;;;;;3.65;92.23;100576.13;1672109;84;21176;-84
2021/04/16 09:58:40;;;;;;;71.90;44.33;;;;;;;3.65;92.19;100574.81;1678933;84;21172;-84
2021/04/16 10:01:16;;;;;;;26.35;23.40;;;;;;;3.65;92.19;100580.91;1684364;85;21147;-84
2021/04/16 10:04:01;;;;;;;170.30;112.20;;;;;;;3.67;92.33;100586.91;1688210;85;21542;-82
2021/04/16 10:06:40;;;;;;;182.47;127.35;;;;;;;3.66;92.10;100578.69;1674646;85;21224;-83
2021/04/16 10:09:26;;;;;;;56.00;29.80;;;;;;;3.67;92.21;100586.91;1674973;85;21144;-82
2021/04/16 10:12:03;;;;;;;55.80;29.50;;;;;;;3.66;92.01;100581.76;1696127;83;21176;-82
2021/04/16 10:14:37;;;;;;;72.45;35.40;;;;;;;3.67;92.17;100584.75;1665828;85;21153;-84
2021/04/16 10:17:18;;;;;;;23.98;14.90;;;;;;;3.67;92.08;100575.16;1697538;82;21142;-84
2021/04/16 10:20:05;;;;;;;32.40;17.05;;;;;;;3.69;92.06;100573.81;1691267;83;21090;-85
2021/04/16 10:22:36;;;;;;;147.75;77.58;;;;;;;3.73;92.06;100571.46;1685688;82;21654;-83
2021/04/16 10:34:36;;;;;;;24.10;14.95;;;;;;;3.83;92.09;100560.19;1667978;84;21086;-83
2021/04/16 12:39:25;;;;;;;21.70;13.80;;;;;;;4.46;90.60;100571.44;1660171;84;21302;-83
2021/04/16 12:41:56;;;;;;;33.85;18.95;;;;;;;4.50;90.96;100571.69;1660856;85;21639;-83
2021/04/16 12:44:37;;;;;;;26.55;13.88;;;;;;;4.53;90.50;100568.11;1669858;85;21159;-83
2021/04/16 12:47:13;;;;;;;22.67;13.72;;;;;;;4.55;90.54;100572.36;1671006;84;21477;-83
2021/04/16 12:49:40;;;;;;;77.58;42.60;;;;;;;4.57;90.43;100565.28;1638839;86;21116;-83
2021/04/16 12:52:08;;;;;;;66.87;34.18;;;;;;;4.59;90.33;100564.77;1671808;85;21330;-83
2021/04/16 12:54:40;;;;;;;131.15;67.05;;;;;;;4.61;90.28;100571.25;1670766;85;21644;-83
2021/04/16 12:57:10;;;;;;;83.10;40.00;;;;;;;4.64;90.26;100570.66;1661932;85;21208;-83
2021/04/16 12:59:37;;;;;;;22.77;12.98;;;;;;;4.65;89.77;100572.34;1658069;85;21208;-83
2021/04/16 13:02:05;;;;;;;54.38;33.08;;;;;;;4.64;89.85;100566.73;1655451;85;21316;-83
2021/04/16 13:04:37;;;;;;;27.73;15.23;;;;;;;4.65;89.83;100564.50;1641714;85;21186;-83
2021/04/16 13:07:03;;;;;;;58.42;32.80;;;;;;;4.66;89.81;100558.34;1662423;84;21158;-84
2021/04/16 13:09:29;;;;;;;48.55;32.08;;;;;;;4.67;89.86;100560.06;1658577;85;21454;-83
2021/04/16 13:11:55;;;;;;;20.40;16.90;;;;;;;4.68;89.89;100550.45;1657113;85;21165;-83
2021/04/16 13:14:22;;;;;;;19.07;11.48;;;;;;;4.65;89.77;100547.51;1664807;85;21159;-83
2021/04/16 13:16:48;;;;;;;17.40;13.55;;;;;;;4.64;89.83;100544.52;1659158;84;21198;-83
2021/04/16 13:19:28;;;;;;;16.30;10.88;;;;;;;4.62;89.58;100545.03;1657476;85;21319;-82
2021/04/16 13:22:08;;;;;;;15.08;10.38;;;;;;;4.61;89.56;100541.19;1651126;85;21156;-82
2021/04/16 13:24:36;;;;;;;16.30;11.73;;;;;;;4.62;89.98;100538.49;1661593;84;21140;-82
2021/04/16 13:27:05;;;;;;;16.67;11.97;;;;;;;4.64;89.60;100537.10;1660920;84;21690;-82
2021/04/16 13:29:32;;;;;;;19.82;10.82;;;;;;;4.61;89.51;100541.19;1660285;84;21186;-82
2021/04/16 13:31:59;;;;;;;10.98;8.98;;;;;;;4.61;89.79;100539.42;1673327;84;21160;-82
2021/04/16 13:34:25;;;;;;;14.70;10.05;;;;;;;4.62;89.54;100547.64;1667359;84;21126;-84
2021/04/16 13:36:51;;;;;;;15.75;9.63;;;;;;;4.61;89.74;100536.81;1668153;84;21503;-83
2021/04/16 13:39:19;;;;;;;8.55;5.95;;;;;;;4.62;89.70;100538.95;1668332;84;21340;-84
2021/04/16 13:41:45;;;;;;;11.93;7.58;;;;;;;4.60;89.56;100539.01;1668519;84;21125;-82
2021/04/16 13:44:12;;;;;;;12.23;5.80;;;;;;;4.58;89.47;100532.17;1666123;84;21302;-83
2021/04/16 13:46:40;;;;;;;10.88;6.92;;;;;;;4.57;89.25;100536.98;1660673;84;21176;-82
2021/04/16 13:49:10;;;;;;;10.60;5.72;;;;;;;4.51;89.21;100534.22;1657163;85;21173;-83
2021/04/16 13:51:37;;;;;;;11.68;6.72;;;;;;;4.48;89.01;100534.34;1665480;84;21206;-83
2021/04/16 13:54:06;;;;;;;8.05;5.85;;;;;;;4.45;89.16;100541.86;1664218;84;21143;-82
2021/04/16 13:56:33;;;;;;;8.33;6.78;;;;;;;4.43;89.10;100547.59;1671097;84;21149;-83
2021/04/16 13:59:01;;;;;;;8.23;6.28;;;;;;;4.42;89.17;100551.13;1667155;84;21137;-82
2021/04/16 14:01:28;;;;;;;13.58;10.15;;;;;;;4.41;89.27;100549.45;1657095;84;21175;-82
2021/04/16 14:04:07;;;;;;;7.22;6.53;;;;;;;4.44;89.34;100551.92;1651994;85;21382;-82
2021/04/16 14:06:37;;;;;;;7.37;4.47;;;;;;;4.45;89.26;100551.00;1646262;84;21172;-82
2021/04/16 14:09:08;;;;;;;5.95;3.62;;;;;;;4.45;88.84;100548.39;1660786;84;21190;-82